sensor_id;sensor_type;location;lat;lon;timestamp;P1;durP1;ratioP1;P2;durP2;ratioP2
70433;SDS011;57876;47.792;12.960;2023-07-30T00:02:18;7.07;;;1.97;;
70433;SDS011;57876;47.792;12.960;2023-07-30T00:04:43;7.78;;;1.90;;
70433;SDS011;57876;47.792;12.960;2023-07-30T00:07:10;6.13;;;1.48;;
70433;SDS011;57876;47.792;12.960;2023-07-30T00:09:35;7.00;;;1.70;;
70433;SDS011;57876;47.792;12.960;2023-07-30T00:11:59;7.07;;;1.97;;
70433;SDS011;57876;47.792;12.960;2023-07-30T00:14:26;7.65;;;1.58;;
70433;SDS011;57876;47.792;12.960;2023-07-30T00:16:50;6.23;;;1.63;;
70433;SDS011;57876;47.792;12.960;2023-07-30T00:19:14;8.30;;;2.00;;
70433;SDS011;57876;47.792;12.960;2023-07-30T00:21:39;8.43;;;2.00;;
70433;SDS011;57876;47.792;12.960;2023-07-30T00:24:03;7.00;;;1.83;;
70433;SDS011;57876;47.792;12.960;2023-07-30T00:26:28;7.03;;;1.73;;
70433;SDS011;57876;47.792;12.960;2023-07-30T00:28:53;7.70;;;1.80;;
70433;SDS011;57876;47.792;12.960;2023-07-30T00:31:18;7.47;;;1.77;;
70433;SDS011;57876;47.792;12.960;2023-07-30T00:33:42;8.10;;;1.73;;
70433;SDS011;57876;47.792;12.960;2023-07-30T00:36:07;6.07;;;1.30;;
70433;SDS011;57876;47.792;12.960;2023-07-30T00:38:31;6.60;;;1.67;;
70433;SDS011;57876;47.792;12.960;2023-07-30T00:40:55;6.03;;;1.10;;
70433;SDS011;57876;47.792;12.960;2023-07-30T00:43:20;6.40;;;1.52;;
70433;SDS011;57876;47.792;12.960;2023-07-30T00:45:44;6.00;;;1.93;;
70433;SDS011;57876;47.792;12.960;2023-07-30T00:48:12;5.13;;;1.37;;
70433;SDS011;57876;47.792;12.960;2023-07-30T00:50:38;6.22;;;1.58;;
70433;SDS011;57876;47.792;12.960;2023-07-30T00:53:04;5.78;;;1.40;;
70433;SDS011;57876;47.792;12.960;2023-07-30T00:55:29;6.20;;;1.35;;
70433;SDS011;57876;47.792;12.960;2023-07-30T00:57:54;6.33;;;1.43;;
70433;SDS011;57876;47.792;12.960;2023-07-30T01:00:18;5.43;;;1.53;;
70433;SDS011;57876;47.792;12.960;2023-07-30T01:02:43;6.15;;;1.60;;
70433;SDS011;57876;47.792;12.960;2023-07-30T01:05:08;5.55;;;1.40;;
70433;SDS011;57876;47.792;12.960;2023-07-30T01:07:32;6.57;;;1.83;;
70433;SDS011;57876;47.792;12.960;2023-07-30T01:09:57;7.03;;;1.80;;
70433;SDS011;57876;47.792;12.960;2023-07-30T01:12:23;5.68;;;1.45;;
70433;SDS011;57876;47.792;12.960;2023-07-30T01:14:48;6.18;;;1.58;;
70433;SDS011;57876;47.792;12.960;2023-07-30T01:17:14;6.93;;;1.40;;
70433;SDS011;57876;47.792;12.960;2023-07-30T01:19:39;6.03;;;1.40;;
70433;SDS011;57876;47.792;12.960;2023-07-30T01:22:04;5.53;;;1.27;;
70433;SDS011;57876;47.792;12.960;2023-07-30T01:24:28;5.45;;;1.40;;
70433;SDS011;57876;47.792;12.960;2023-07-30T01:27:01;5.80;;;1.50;;
70433;SDS011;57876;47.792;12.960;2023-07-30T01:29:29;6.97;;;1.48;;
70433;SDS011;57876;47.792;12.960;2023-07-30T01:32:18;4.80;;;1.23;;
70433;SDS011;57876;47.792;12.960;2023-07-30T01:34:48;7.40;;;1.67;;
70433;SDS011;57876;47.792;12.960;2023-07-30T01:37:16;5.30;;;1.40;;
70433;SDS011;57876;47.792;12.960;2023-07-30T01:39:41;4.80;;;1.30;;
70433;SDS011;57876;47.792;12.960;2023-07-30T01:42:07;7.00;;;1.52;;
70433;SDS011;57876;47.792;12.960;2023-07-30T01:44:31;6.30;;;1.53;;
70433;SDS011;57876;47.792;12.960;2023-07-30T01:46:56;5.53;;;1.43;;
70433;SDS011;57876;47.792;12.960;2023-07-30T01:49:20;5.90;;;1.30;;
70433;SDS011;57876;47.792;12.960;2023-07-30T01:51:44;5.47;;;1.43;;
70433;SDS011;57876;47.792;12.960;2023-07-30T01:54:10;7.17;;;1.60;;
70433;SDS011;57876;47.792;12.960;2023-07-30T01:56:34;5.93;;;1.35;;
70433;SDS011;57876;47.792;12.960;2023-07-30T01:58:58;6.07;;;1.40;;
70433;SDS011;57876;47.792;12.960;2023-07-30T02:01:23;6.13;;;1.37;;
70433;SDS011;57876;47.792;12.960;2023-07-30T02:03:47;5.80;;;1.40;;
70433;SDS011;57876;47.792;12.960;2023-07-30T02:06:12;5.77;;;1.43;;
70433;SDS011;57876;47.792;12.960;2023-07-30T02:08:36;5.43;;;1.40;;
70433;SDS011;57876;47.792;12.960;2023-07-30T02:11:01;5.80;;;1.27;;
70433;SDS011;57876;47.792;12.960;2023-07-30T02:13:25;5.80;;;1.60;;
70433;SDS011;57876;47.792;12.960;2023-07-30T02:15:50;5.30;;;1.35;;
70433;SDS011;57876;47.792;12.960;2023-07-30T02:18:14;6.50;;;1.43;;
70433;SDS011;57876;47.792;12.960;2023-07-30T02:20:39;5.05;;;1.40;;
70433;SDS011;57876;47.792;12.960;2023-07-30T02:23:03;5.47;;;1.17;;
70433;SDS011;57876;47.792;12.960;2023-07-30T02:25:28;6.07;;;1.37;;
70433;SDS011;57876;47.792;12.960;2023-07-30T02:27:52;5.53;;;1.30;;
70433;SDS011;57876;47.792;12.960;2023-07-30T02:30:17;4.83;;;1.17;;
70433;SDS011;57876;47.792;12.960;2023-07-30T02:32:42;5.70;;;1.27;;
70433;SDS011;57876;47.792;12.960;2023-07-30T02:35:06;5.00;;;1.30;;
70433;SDS011;57876;47.792;12.960;2023-07-30T02:37:31;5.85;;;1.48;;
70433;SDS011;57876;47.792;12.960;2023-07-30T02:39:55;5.43;;;1.30;;
70433;SDS011;57876;47.792;12.960;2023-07-30T02:42:19;5.60;;;1.27;;
70433;SDS011;57876;47.792;12.960;2023-07-30T02:44:44;5.77;;;1.27;;
70433;SDS011;57876;47.792;12.960;2023-07-30T02:47:08;5.87;;;1.20;;
70433;SDS011;57876;47.792;12.960;2023-07-30T02:49:32;5.30;;;1.60;;
70433;SDS011;57876;47.792;12.960;2023-07-30T02:51:57;4.80;;;1.20;;
70433;SDS011;57876;47.792;12.960;2023-07-30T02:54:21;5.53;;;1.30;;
70433;SDS011;57876;47.792;12.960;2023-07-30T02:56:47;5.35;;;1.20;;
70433;SDS011;57876;47.792;12.960;2023-07-30T02:59:11;5.07;;;1.20;;
70433;SDS011;57876;47.792;12.960;2023-07-30T03:01:36;4.83;;;1.20;;
70433;SDS011;57876;47.792;12.960;2023-07-30T03:04:00;5.27;;;1.43;;
70433;SDS011;57876;47.792;12.960;2023-07-30T03:06:24;4.80;;;1.20;;
70433;SDS011;57876;47.792;12.960;2023-07-30T03:08:49;6.93;;;1.40;;
70433;SDS011;57876;47.792;12.960;2023-07-30T03:11:13;4.53;;;1.23;;
70433;SDS011;57876;47.792;12.960;2023-07-30T03:13:38;5.18;;;1.25;;
70433;SDS011;57876;47.792;12.960;2023-07-30T03:16:02;6.90;;;1.30;;
70433;SDS011;57876;47.792;12.960;2023-07-30T03:18:26;4.80;;;1.30;;
70433;SDS011;57876;47.792;12.960;2023-07-30T03:20:57;5.45;;;1.40;;
70433;SDS011;57876;47.792;12.960;2023-07-30T03:23:26;4.40;;;1.13;;
70433;SDS011;57876;47.792;12.960;2023-07-30T03:25:51;5.00;;;1.40;;
70433;SDS011;57876;47.792;12.960;2023-07-30T03:28:16;5.33;;;1.40;;
70433;SDS011;57876;47.792;12.960;2023-07-30T03:30:40;5.00;;;1.17;;
70433;SDS011;57876;47.792;12.960;2023-07-30T03:33:05;5.83;;;1.00;;
70433;SDS011;57876;47.792;12.960;2023-07-30T03:35:29;4.97;;;1.23;;
70433;SDS011;57876;47.792;12.960;2023-07-30T03:37:54;4.75;;;1.05;;
70433;SDS011;57876;47.792;12.960;2023-07-30T03:40:18;4.67;;;1.20;;
70433;SDS011;57876;47.792;12.960;2023-07-30T03:42:43;4.50;;;1.00;;
70433;SDS011;57876;47.792;12.960;2023-07-30T03:45:07;6.40;;;1.30;;
70433;SDS011;57876;47.792;12.960;2023-07-30T03:47:32;4.70;;;1.50;;
70433;SDS011;57876;47.792;12.960;2023-07-30T03:49:56;5.00;;;1.00;;
70433;SDS011;57876;47.792;12.960;2023-07-30T03:52:20;4.80;;;1.37;;
70433;SDS011;57876;47.792;12.960;2023-07-30T03:54:45;5.33;;;1.20;;
70433;SDS011;57876;47.792;12.960;2023-07-30T03:57:09;4.85;;;1.30;;
70433;SDS011;57876;47.792;12.960;2023-07-30T03:59:34;4.33;;;1.17;;
70433;SDS011;57876;47.792;12.960;2023-07-30T04:01:58;4.93;;;1.30;;
70433;SDS011;57876;47.792;12.960;2023-07-30T04:04:22;4.60;;;1.00;;
70433;SDS011;57876;47.792;12.960;2023-07-30T04:06:47;5.10;;;1.33;;
70433;SDS011;57876;47.792;12.960;2023-07-30T04:09:11;5.03;;;1.00;;
70433;SDS011;57876;47.792;12.960;2023-07-30T04:11:35;5.07;;;1.13;;
70433;SDS011;57876;47.792;12.960;2023-07-30T04:14:00;4.90;;;1.30;;
70433;SDS011;57876;47.792;12.960;2023-07-30T04:16:24;4.70;;;0.97;;
70433;SDS011;57876;47.792;12.960;2023-07-30T04:18:49;4.60;;;1.20;;
70433;SDS011;57876;47.792;12.960;2023-07-30T04:21:13;4.30;;;1.00;;
70433;SDS011;57876;47.792;12.960;2023-07-30T04:23:37;5.13;;;1.00;;
70433;SDS011;57876;47.792;12.960;2023-07-30T04:26:02;4.47;;;0.90;;
70433;SDS011;57876;47.792;12.960;2023-07-30T04:28:26;4.40;;;1.00;;
70433;SDS011;57876;47.792;12.960;2023-07-30T04:30:51;5.20;;;1.00;;
70433;SDS011;57876;47.792;12.960;2023-07-30T04:33:15;4.63;;;1.00;;
70433;SDS011;57876;47.792;12.960;2023-07-30T04:35:39;5.60;;;1.10;;
70433;SDS011;57876;47.792;12.960;2023-07-30T04:38:04;4.80;;;1.20;;
70433;SDS011;57876;47.792;12.960;2023-07-30T04:40:29;4.70;;;1.10;;
70433;SDS011;57876;47.792;12.960;2023-07-30T04:42:53;4.60;;;1.10;;
70433;SDS011;57876;47.792;12.960;2023-07-30T04:45:18;4.80;;;1.00;;
70433;SDS011;57876;47.792;12.960;2023-07-30T04:47:42;5.13;;;1.20;;
70433;SDS011;57876;47.792;12.960;2023-07-30T04:50:07;4.10;;;0.93;;
70433;SDS011;57876;47.792;12.960;2023-07-30T04:52:31;5.03;;;1.10;;
70433;SDS011;57876;47.792;12.960;2023-07-30T04:54:56;4.65;;;1.10;;
70433;SDS011;57876;47.792;12.960;2023-07-30T04:57:21;4.53;;;1.10;;
70433;SDS011;57876;47.792;12.960;2023-07-30T04:59:45;4.60;;;1.05;;
70433;SDS011;57876;47.792;12.960;2023-07-30T05:02:10;4.80;;;1.20;;
70433;SDS011;57876;47.792;12.960;2023-07-30T05:04:34;4.27;;;1.00;;
70433;SDS011;57876;47.792;12.960;2023-07-30T05:06:58;4.73;;;1.13;;
70433;SDS011;57876;47.792;12.960;2023-07-30T05:09:23;4.65;;;1.10;;
70433;SDS011;57876;47.792;12.960;2023-07-30T05:11:47;4.73;;;0.93;;
70433;SDS011;57876;47.792;12.960;2023-07-30T05:14:12;4.57;;;1.00;;
70433;SDS011;57876;47.792;12.960;2023-07-30T05:16:36;4.37;;;0.90;;
70433;SDS011;57876;47.792;12.960;2023-07-30T05:19:01;4.10;;;1.00;;
70433;SDS011;57876;47.792;12.960;2023-07-30T05:21:26;4.47;;;0.90;;
70433;SDS011;57876;47.792;12.960;2023-07-30T05:23:50;4.80;;;1.02;;
70433;SDS011;57876;47.792;12.960;2023-07-30T05:26:15;4.33;;;1.00;;
70433;SDS011;57876;47.792;12.960;2023-07-30T05:28:39;4.80;;;1.03;;
70433;SDS011;57876;47.792;12.960;2023-07-30T05:31:03;4.10;;;0.90;;
70433;SDS011;57876;47.792;12.960;2023-07-30T05:33:28;4.00;;;1.00;;
70433;SDS011;57876;47.792;12.960;2023-07-30T05:35:52;4.38;;;0.88;;
70433;SDS011;57876;47.792;12.960;2023-07-30T05:38:16;4.60;;;0.90;;
70433;SDS011;57876;47.792;12.960;2023-07-30T05:40:41;4.17;;;1.03;;
70433;SDS011;57876;47.792;12.960;2023-07-30T05:43:06;4.10;;;0.80;;
70433;SDS011;57876;47.792;12.960;2023-07-30T05:45:30;4.30;;;1.10;;
70433;SDS011;57876;47.792;12.960;2023-07-30T05:47:55;4.67;;;1.00;;
70433;SDS011;57876;47.792;12.960;2023-07-30T05:50:19;3.97;;;0.90;;
70433;SDS011;57876;47.792;12.960;2023-07-30T05:52:43;4.50;;;0.90;;
70433;SDS011;57876;47.792;12.960;2023-07-30T05:55:08;4.50;;;1.00;;
70433;SDS011;57876;47.792;12.960;2023-07-30T05:57:32;4.40;;;0.90;;
70433;SDS011;57876;47.792;12.960;2023-07-30T05:59:57;4.00;;;1.00;;
70433;SDS011;57876;47.792;12.960;2023-07-30T06:02:21;4.22;;;1.00;;
70433;SDS011;57876;47.792;12.960;2023-07-30T06:04:48;4.90;;;1.10;;
70433;SDS011;57876;47.792;12.960;2023-07-30T06:07:13;4.10;;;0.80;;
70433;SDS011;57876;47.792;12.960;2023-07-30T06:09:40;5.30;;;1.00;;
70433;SDS011;57876;47.792;12.960;2023-07-30T06:12:04;4.28;;;0.90;;
70433;SDS011;57876;47.792;12.960;2023-07-30T06:14:29;3.93;;;1.00;;
70433;SDS011;57876;47.792;12.960;2023-07-30T06:16:53;4.90;;;1.10;;
70433;SDS011;57876;47.792;12.960;2023-07-30T06:19:18;4.03;;;0.97;;
70433;SDS011;57876;47.792;12.960;2023-07-30T06:21:42;4.60;;;1.00;;
70433;SDS011;57876;47.792;12.960;2023-07-30T06:24:07;4.47;;;0.83;;
70433;SDS011;57876;47.792;12.960;2023-07-30T06:26:31;4.20;;;0.90;;
70433;SDS011;57876;47.792;12.960;2023-07-30T06:28:56;4.15;;;0.85;;
70433;SDS011;57876;47.792;12.960;2023-07-30T06:31:20;4.50;;;1.00;;
70433;SDS011;57876;47.792;12.960;2023-07-30T06:33:45;4.70;;;0.80;;
70433;SDS011;57876;47.792;12.960;2023-07-30T06:36:09;4.30;;;0.90;;
70433;SDS011;57876;47.792;12.960;2023-07-30T06:38:34;4.50;;;0.90;;
70433;SDS011;57876;47.792;12.960;2023-07-30T06:40:58;4.60;;;1.13;;
70433;SDS011;57876;47.792;12.960;2023-07-30T06:43:23;3.83;;;0.83;;
70433;SDS011;57876;47.792;12.960;2023-07-30T06:45:47;4.50;;;0.95;;
70433;SDS011;57876;47.792;12.960;2023-07-30T06:48:12;4.20;;;0.90;;
70433;SDS011;57876;47.792;12.960;2023-07-30T06:50:36;3.90;;;0.80;;
70433;SDS011;57876;47.792;12.960;2023-07-30T06:53:01;3.77;;;0.90;;
70433;SDS011;57876;47.792;12.960;2023-07-30T06:55:28;4.30;;;0.90;;
70433;SDS011;57876;47.792;12.960;2023-07-30T06:57:55;4.45;;;0.85;;
70433;SDS011;57876;47.792;12.960;2023-07-30T07:00:35;3.83;;;0.70;;
70433;SDS011;57876;47.792;12.960;2023-07-30T07:03:00;4.38;;;0.90;;
70433;SDS011;57876;47.792;12.960;2023-07-30T07:05:24;4.20;;;0.80;;
70433;SDS011;57876;47.792;12.960;2023-07-30T07:07:49;4.00;;;0.80;;
70433;SDS011;57876;47.792;12.960;2023-07-30T07:10:13;4.72;;;0.90;;
70433;SDS011;57876;47.792;12.960;2023-07-30T07:12:38;3.97;;;0.70;;
70433;SDS011;57876;47.792;12.960;2023-07-30T07:15:03;4.10;;;0.95;;
70433;SDS011;57876;47.792;12.960;2023-07-30T07:17:29;4.00;;;0.80;;
70433;SDS011;57876;47.792;12.960;2023-07-30T07:19:53;3.80;;;0.90;;
70433;SDS011;57876;47.792;12.960;2023-07-30T07:22:18;4.07;;;0.93;;
70433;SDS011;57876;47.792;12.960;2023-07-30T07:24:42;4.90;;;0.90;;
70433;SDS011;57876;47.792;12.960;2023-07-30T07:27:08;4.10;;;0.80;;
70433;SDS011;57876;47.792;12.960;2023-07-30T07:29:32;3.80;;;0.80;;
70433;SDS011;57876;47.792;12.960;2023-07-30T07:31:57;4.10;;;0.80;;
70433;SDS011;57876;47.792;12.960;2023-07-30T07:34:21;3.80;;;0.77;;
70433;SDS011;57876;47.792;12.960;2023-07-30T07:36:46;3.80;;;0.80;;
70433;SDS011;57876;47.792;12.960;2023-07-30T07:39:10;3.97;;;0.83;;
70433;SDS011;57876;47.792;12.960;2023-07-30T07:41:35;3.92;;;0.90;;
70433;SDS011;57876;47.792;12.960;2023-07-30T07:43:59;3.90;;;0.93;;
70433;SDS011;57876;47.792;12.960;2023-07-30T07:46:24;3.80;;;0.83;;
70433;SDS011;57876;47.792;12.960;2023-07-30T07:48:50;3.67;;;0.77;;
70433;SDS011;57876;47.792;12.960;2023-07-30T07:51:14;3.63;;;0.80;;
70433;SDS011;57876;47.792;12.960;2023-07-30T07:53:39;4.87;;;0.97;;
70433;SDS011;57876;47.792;12.960;2023-07-30T07:56:03;5.70;;;1.10;;
70433;SDS011;57876;47.792;12.960;2023-07-30T07:58:28;4.63;;;1.20;;
70433;SDS011;57876;47.792;12.960;2023-07-30T08:00:56;7.63;;;1.23;;
70433;SDS011;57876;47.792;12.960;2023-07-30T08:03:20;8.43;;;1.00;;
70433;SDS011;57876;47.792;12.960;2023-07-30T08:05:45;7.63;;;1.20;;
70433;SDS011;57876;47.792;12.960;2023-07-30T08:08:09;7.07;;;1.00;;
70433;SDS011;57876;47.792;12.960;2023-07-30T08:10:37;5.00;;;1.10;;
70433;SDS011;57876;47.792;12.960;2023-07-30T08:13:03;6.40;;;1.27;;
70433;SDS011;57876;47.792;12.960;2023-07-30T08:15:27;6.93;;;0.93;;
70433;SDS011;57876;47.792;12.960;2023-07-30T08:17:52;5.87;;;1.07;;
70433;SDS011;57876;47.792;12.960;2023-07-30T08:20:16;7.47;;;1.07;;
70433;SDS011;57876;47.792;12.960;2023-07-30T08:22:41;4.43;;;0.87;;
70433;SDS011;57876;47.792;12.960;2023-07-30T08:25:05;6.47;;;0.97;;
70433;SDS011;57876;47.792;12.960;2023-07-30T08:27:30;6.10;;;1.25;;
70433;SDS011;57876;47.792;12.960;2023-07-30T08:29:55;4.53;;;0.90;;
70433;SDS011;57876;47.792;12.960;2023-07-30T08:32:19;5.80;;;1.07;;
70433;SDS011;57876;47.792;12.960;2023-07-30T08:34:43;5.68;;;1.00;;
70433;SDS011;57876;47.792;12.960;2023-07-30T08:37:08;5.47;;;0.87;;
70433;SDS011;57876;47.792;12.960;2023-07-30T08:39:32;4.90;;;1.03;;
70433;SDS011;57876;47.792;12.960;2023-07-30T08:41:57;4.50;;;0.80;;
70433;SDS011;57876;47.792;12.960;2023-07-30T08:44:22;4.53;;;1.00;;
70433;SDS011;57876;47.792;12.960;2023-07-30T08:46:46;3.57;;;0.70;;
70433;SDS011;57876;47.792;12.960;2023-07-30T08:49:10;5.23;;;0.90;;
70433;SDS011;57876;47.792;12.960;2023-07-30T08:51:36;4.93;;;0.90;;
70433;SDS011;57876;47.792;12.960;2023-07-30T08:54:01;5.67;;;0.90;;
70433;SDS011;57876;47.792;12.960;2023-07-30T08:56:26;4.25;;;1.00;;
70433;SDS011;57876;47.792;12.960;2023-07-30T08:58:51;7.47;;;0.90;;
70433;SDS011;57876;47.792;12.960;2023-07-30T09:01:25;5.47;;;1.02;;
70433;SDS011;57876;47.792;12.960;2023-07-30T09:03:55;4.30;;;1.13;;
70433;SDS011;57876;47.792;12.960;2023-07-30T09:06:21;5.38;;;1.05;;
70433;SDS011;57876;47.792;12.960;2023-07-30T09:08:47;4.20;;;0.90;;
70433;SDS011;57876;47.792;12.960;2023-07-30T09:11:18;5.20;;;0.90;;
70433;SDS011;57876;47.792;12.960;2023-07-30T09:13:45;5.57;;;0.80;;
70433;SDS011;57876;47.792;12.960;2023-07-30T09:16:10;3.65;;;0.82;;
70433;SDS011;57876;47.792;12.960;2023-07-30T09:18:42;4.43;;;1.03;;
70433;SDS011;57876;47.792;12.960;2023-07-30T09:21:08;7.35;;;1.02;;
70433;SDS011;57876;47.792;12.960;2023-07-30T09:23:39;3.90;;;0.90;;
70433;SDS011;57876;47.792;12.960;2023-07-30T09:26:04;5.07;;;0.88;;
70433;SDS011;57876;47.792;12.960;2023-07-30T09:28:30;5.03;;;1.33;;
70433;SDS011;57876;47.792;12.960;2023-07-30T09:31:02;4.10;;;0.90;;
70433;SDS011;57876;47.792;12.960;2023-07-30T09:33:28;4.53;;;0.90;;
70433;SDS011;57876;47.792;12.960;2023-07-30T09:35:52;5.50;;;0.80;;
70433;SDS011;57876;47.792;12.960;2023-07-30T09:38:17;5.75;;;0.90;;
70433;SDS011;57876;47.792;12.960;2023-07-30T09:40:42;3.67;;;0.93;;
70433;SDS011;57876;47.792;12.960;2023-07-30T09:43:07;4.00;;;0.90;;
70433;SDS011;57876;47.792;12.960;2023-07-30T09:45:35;5.00;;;1.03;;
70433;SDS011;57876;47.792;12.960;2023-07-30T09:48:03;4.57;;;0.82;;
70433;SDS011;57876;47.792;12.960;2023-07-30T09:50:29;4.73;;;0.90;;
70433;SDS011;57876;47.792;12.960;2023-07-30T09:52:54;4.53;;;0.80;;
70433;SDS011;57876;47.792;12.960;2023-07-30T09:55:18;5.50;;;0.80;;
70433;SDS011;57876;47.792;12.960;2023-07-30T09:57:45;4.05;;;0.90;;
70433;SDS011;57876;47.792;12.960;2023-07-30T10:00:12;5.18;;;0.80;;
70433;SDS011;57876;47.792;12.960;2023-07-30T10:02:38;4.10;;;0.73;;
70433;SDS011;57876;47.792;12.960;2023-07-30T10:05:08;4.53;;;0.83;;
70433;SDS011;57876;47.792;12.960;2023-07-30T10:07:36;4.47;;;0.95;;
70433;SDS011;57876;47.792;12.960;2023-07-30T10:10:07;4.40;;;0.90;;
70433;SDS011;57876;47.792;12.960;2023-07-30T10:12:33;3.85;;;0.80;;
70433;SDS011;57876;47.792;12.960;2023-07-30T10:15:00;5.03;;;0.85;;
70433;SDS011;57876;47.792;12.960;2023-07-30T10:17:25;4.37;;;0.97;;
70433;SDS011;57876;47.792;12.960;2023-07-30T10:19:50;3.80;;;0.70;;
70433;SDS011;57876;47.792;12.960;2023-07-30T10:24:42;3.60;;;0.80;;
70433;SDS011;57876;47.792;12.960;2023-07-30T10:27:23;3.92;;;0.90;;
70433;SDS011;57876;47.792;12.960;2023-07-30T10:29:49;3.65;;;0.82;;
70433;SDS011;57876;47.792;12.960;2023-07-30T10:32:13;3.13;;;0.60;;
70433;SDS011;57876;47.792;12.960;2023-07-30T10:34:44;4.60;;;0.90;;
70433;SDS011;57876;47.792;12.960;2023-07-30T10:37:11;3.42;;;0.60;;
70433;SDS011;57876;47.792;12.960;2023-07-30T10:39:42;3.95;;;0.70;;
70433;SDS011;57876;47.792;12.960;2023-07-30T10:42:07;4.07;;;0.93;;
70433;SDS011;57876;47.792;12.960;2023-07-30T10:44:33;4.70;;;0.90;;
70433;SDS011;57876;47.792;12.960;2023-07-30T10:46:58;3.60;;;0.70;;
70433;SDS011;57876;47.792;12.960;2023-07-30T10:49:23;5.17;;;0.83;;
70433;SDS011;57876;47.792;12.960;2023-07-30T10:51:51;3.83;;;0.70;;
70433;SDS011;57876;47.792;12.960;2023-07-30T10:54:17;4.28;;;0.80;;
70433;SDS011;57876;47.792;12.960;2023-07-30T10:56:41;3.80;;;0.63;;
70433;SDS011;57876;47.792;12.960;2023-07-30T10:59:06;4.40;;;0.80;;
70433;SDS011;57876;47.792;12.960;2023-07-30T11:01:31;4.63;;;0.97;;
70433;SDS011;57876;47.792;12.960;2023-07-30T11:03:55;3.67;;;0.75;;
70433;SDS011;57876;47.792;12.960;2023-07-30T11:06:21;3.97;;;0.80;;
70433;SDS011;57876;47.792;12.960;2023-07-30T11:08:46;3.38;;;0.70;;
70433;SDS011;57876;47.792;12.960;2023-07-30T11:11:11;3.80;;;0.70;;
70433;SDS011;57876;47.792;12.960;2023-07-30T11:13:45;3.40;;;0.60;;
70433;SDS011;57876;47.792;12.960;2023-07-30T11:16:11;4.80;;;0.73;;
70433;SDS011;57876;47.792;12.960;2023-07-30T11:18:36;3.90;;;0.80;;
70433;SDS011;57876;47.792;12.960;2023-07-30T11:23:29;3.90;;;0.80;;
70433;SDS011;57876;47.792;12.960;2023-07-30T11:25:53;3.33;;;0.65;;
70433;SDS011;57876;47.792;12.960;2023-07-30T11:28:30;4.13;;;0.70;;
70433;SDS011;57876;47.792;12.960;2023-07-30T11:31:00;3.85;;;0.77;;
70433;SDS011;57876;47.792;12.960;2023-07-30T11:33:28;4.47;;;1.88;;
70433;SDS011;57876;47.792;12.960;2023-07-30T11:35:54;3.77;;;0.80;;
70433;SDS011;57876;47.792;12.960;2023-07-30T11:38:20;4.45;;;0.80;;
70433;SDS011;57876;47.792;12.960;2023-07-30T11:40:46;4.07;;;0.70;;
70433;SDS011;57876;47.792;12.960;2023-07-30T11:43:11;3.53;;;0.75;;
70433;SDS011;57876;47.792;12.960;2023-07-30T11:45:35;4.33;;;0.80;;
70433;SDS011;57876;47.792;12.960;2023-07-30T11:48:07;3.08;;;0.60;;
70433;SDS011;57876;47.792;12.960;2023-07-30T11:50:49;4.67;;;0.70;;
70433;SDS011;57876;47.792;12.960;2023-07-30T11:53:15;3.28;;;0.68;;
70433;SDS011;57876;47.792;12.960;2023-07-30T11:55:40;3.70;;;0.82;;
70433;SDS011;57876;47.792;12.960;2023-07-30T11:58:06;4.10;;;0.60;;
70433;SDS011;57876;47.792;12.960;2023-07-30T12:00:32;4.85;;;0.90;;
70433;SDS011;57876;47.792;12.960;2023-07-30T12:02:59;4.37;;;0.80;;
70433;SDS011;57876;47.792;12.960;2023-07-30T12:05:33;3.45;;;0.60;;
70433;SDS011;57876;47.792;12.960;2023-07-30T12:07:58;3.63;;;0.70;;
70433;SDS011;57876;47.792;12.960;2023-07-30T12:10:26;3.60;;;0.80;;
70433;SDS011;57876;47.792;12.960;2023-07-30T12:12:51;3.93;;;0.67;;
70433;SDS011;57876;47.792;12.960;2023-07-30T12:15:17;3.30;;;0.68;;
70433;SDS011;57876;47.792;12.960;2023-07-30T12:17:41;3.70;;;0.80;;
70433;SDS011;57876;47.792;12.960;2023-07-30T12:20:06;3.50;;;0.80;;
70433;SDS011;57876;47.792;12.960;2023-07-30T12:22:30;3.95;;;0.70;;
70433;SDS011;57876;47.792;12.960;2023-07-30T12:24:55;3.53;;;0.60;;
70433;SDS011;57876;47.792;12.960;2023-07-30T12:27:19;3.43;;;0.70;;
70433;SDS011;57876;47.792;12.960;2023-07-30T12:29:44;3.83;;;0.90;;
70433;SDS011;57876;47.792;12.960;2023-07-30T12:32:08;4.10;;;0.70;;
70433;SDS011;57876;47.792;12.960;2023-07-30T12:34:33;3.73;;;0.73;;
70433;SDS011;57876;47.792;12.960;2023-07-30T12:36:57;4.28;;;0.80;;
70433;SDS011;57876;47.792;12.960;2023-07-30T12:39:22;3.43;;;0.60;;
70433;SDS011;57876;47.792;12.960;2023-07-30T12:41:47;4.35;;;0.80;;
70433;SDS011;57876;47.792;12.960;2023-07-30T12:44:11;3.83;;;0.73;;
70433;SDS011;57876;47.792;12.960;2023-07-30T12:46:35;2.87;;;0.60;;
70433;SDS011;57876;47.792;12.960;2023-07-30T12:49:00;3.50;;;0.70;;
70433;SDS011;57876;47.792;12.960;2023-07-30T12:51:27;3.42;;;0.80;;
70433;SDS011;57876;47.792;12.960;2023-07-30T12:53:52;4.07;;;0.67;;
70433;SDS011;57876;47.792;12.960;2023-07-30T12:56:16;3.50;;;0.70;;
70433;SDS011;57876;47.792;12.960;2023-07-30T12:58:41;3.33;;;0.70;;
70433;SDS011;57876;47.792;12.960;2023-07-30T13:01:05;3.47;;;0.70;;
70433;SDS011;57876;47.792;12.960;2023-07-30T13:03:30;2.90;;;0.60;;
70433;SDS011;57876;47.792;12.960;2023-07-30T13:05:54;3.70;;;0.60;;
70433;SDS011;57876;47.792;12.960;2023-07-30T13:08:19;2.80;;;0.60;;
70433;SDS011;57876;47.792;12.960;2023-07-30T13:10:43;3.40;;;0.70;;
70433;SDS011;57876;47.792;12.960;2023-07-30T13:13:08;2.87;;;0.53;;
70433;SDS011;57876;47.792;12.960;2023-07-30T13:15:35;3.60;;;0.80;;
70433;SDS011;57876;47.792;12.960;2023-07-30T13:18:00;3.55;;;0.95;;
70433;SDS011;57876;47.792;12.960;2023-07-30T13:20:24;3.67;;;0.77;;
70433;SDS011;57876;47.792;12.960;2023-07-30T13:22:55;3.10;;;0.65;;
70433;SDS011;57876;47.792;12.960;2023-07-30T13:25:20;3.55;;;0.70;;
70433;SDS011;57876;47.792;12.960;2023-07-30T13:27:51;4.13;;;0.70;;
70433;SDS011;57876;47.792;12.960;2023-07-30T13:30:17;14.48;;;1.33;;
70433;SDS011;57876;47.792;12.960;2023-07-30T13:32:42;101.83;;;4.47;;
70433;SDS011;57876;47.792;12.960;2023-07-30T13:35:06;48.90;;;2.40;;
70433;SDS011;57876;47.792;12.960;2023-07-30T13:37:31;71.32;;;3.97;;
70433;SDS011;57876;47.792;12.960;2023-07-30T13:39:58;44.58;;;2.17;;
70433;SDS011;57876;47.792;12.960;2023-07-30T13:42:23;218.17;;;12.27;;
70433;SDS011;57876;47.792;12.960;2023-07-30T13:44:48;151.50;;;9.57;;
70433;SDS011;57876;47.792;12.960;2023-07-30T13:47:13;80.50;;;4.77;;
70433;SDS011;57876;47.792;12.960;2023-07-30T13:49:43;70.90;;;6.05;;
70433;SDS011;57876;47.792;12.960;2023-07-30T13:52:08;54.65;;;4.07;;
70433;SDS011;57876;47.792;12.960;2023-07-30T13:54:35;59.73;;;3.67;;
70433;SDS011;57876;47.792;12.960;2023-07-30T13:57:03;45.53;;;4.22;;
70433;SDS011;57876;47.792;12.960;2023-07-30T13:59:29;54.50;;;4.07;;
70433;SDS011;57876;47.792;12.960;2023-07-30T14:01:53;85.07;;;4.57;;
70433;SDS011;57876;47.792;12.960;2023-07-30T14:04:17;84.47;;;4.00;;
70433;SDS011;57876;47.792;12.960;2023-07-30T14:06:42;85.87;;;4.80;;
70433;SDS011;57876;47.792;12.960;2023-07-30T14:09:07;73.55;;;4.28;;
70433;SDS011;57876;47.792;12.960;2023-07-30T14:11:31;100.87;;;5.57;;
70433;SDS011;57876;47.792;12.960;2023-07-30T14:13:55;57.03;;;3.80;;
70433;SDS011;57876;47.792;12.960;2023-07-30T14:16:22;73.28;;;4.40;;
70433;SDS011;57876;47.792;12.960;2023-07-30T14:18:46;64.57;;;4.63;;
70433;SDS011;57876;47.792;12.960;2023-07-30T14:21:10;59.15;;;4.80;;
70433;SDS011;57876;47.792;12.960;2023-07-30T14:23:36;43.33;;;3.77;;
70433;SDS011;57876;47.792;12.960;2023-07-30T14:26:00;51.40;;;3.83;;
70433;SDS011;57876;47.792;12.960;2023-07-30T14:28:25;65.93;;;3.70;;